sensor_id;sensor_type;location;lat;lon;timestamp;P1;durP1;ratioP1;P2;durP2;ratioP2
76035;SDS011;64732;56.314;44.068;2024-01-30T00:00:57;25.02;;;10.07;;
76035;SDS011;64732;56.314;44.068;2024-01-30T00:03:18;22.50;;;9.98;;
76035;SDS011;64732;56.314;44.068;2024-01-30T00:05:39;26.75;;;9.75;;
76035;SDS011;64732;56.314;44.068;2024-01-30T00:08:00;26.80;;;11.20;;
76035;SDS011;64732;56.314;44.068;2024-01-30T00:10:21;18.98;;;8.35;;
76035;SDS011;64732;56.314;44.068;2024-01-30T00:12:45;30.50;;;10.77;;
76035;SDS011;64732;56.314;44.068;2024-01-30T00:15:08;26.95;;;11.20;;
76035;SDS011;64732;56.314;44.068;2024-01-30T00:17:29;22.65;;;10.50;;
76035;SDS011;64732;56.314;44.068;2024-01-30T00:19:50;26.08;;;10.93;;
76035;SDS011;64732;56.314;44.068;2024-01-30T00:22:11;23.65;;;10.25;;
76035;SDS011;64732;56.314;44.068;2024-01-30T00:24:32;22.38;;;10.23;;
76035;SDS011;64732;56.314;44.068;2024-01-30T00:26:53;27.83;;;10.52;;
76035;SDS011;64732;56.314;44.068;2024-01-30T00:29:17;22.27;;;9.52;;
76035;SDS011;64732;56.314;44.068;2024-01-30T00:31:38;26.48;;;10.65;;
76035;SDS011;64732;56.314;44.068;2024-01-30T00:33:59;17.85;;;8.18;;
76035;SDS011;64732;56.314;44.068;2024-01-30T00:36:20;26.55;;;11.23;;
76035;SDS011;64732;56.314;44.068;2024-01-30T00:38:41;26.38;;;10.95;;
76035;SDS011;64732;56.314;44.068;2024-01-30T00:41:02;26.75;;;10.60;;
76035;SDS011;64732;56.314;44.068;2024-01-30T00:43:23;24.13;;;9.05;;
76035;SDS011;64732;56.314;44.068;2024-01-30T00:45:47;21.35;;;9.52;;
76035;SDS011;64732;56.314;44.068;2024-01-30T00:48:08;26.48;;;10.48;;
76035;SDS011;64732;56.314;44.068;2024-01-30T00:50:29;26.40;;;11.13;;
76035;SDS011;64732;56.314;44.068;2024-01-30T00:52:50;28.40;;;11.27;;
76035;SDS011;64732;56.314;44.068;2024-01-30T00:55:11;29.77;;;9.07;;
76035;SDS011;64732;56.314;44.068;2024-01-30T00:57:32;26.40;;;10.27;;
76035;SDS011;64732;56.314;44.068;2024-01-30T00:59:53;28.38;;;10.75;;
76035;SDS011;64732;56.314;44.068;2024-01-30T01:02:17;28.40;;;10.95;;
76035;SDS011;64732;56.314;44.068;2024-01-30T01:04:38;22.63;;;9.40;;
76035;SDS011;64732;56.314;44.068;2024-01-30T01:06:59;30.00;;;10.85;;
76035;SDS011;64732;56.314;44.068;2024-01-30T01:09:20;26.25;;;11.00;;
76035;SDS011;64732;56.314;44.068;2024-01-30T01:11:41;23.90;;;10.75;;
76035;SDS011;64732;56.314;44.068;2024-01-30T01:14:02;33.85;;;12.85;;
76035;SDS011;64732;56.314;44.068;2024-01-30T01:16:23;23.10;;;9.20;;
76035;SDS011;64732;56.314;44.068;2024-01-30T01:18:47;30.60;;;12.60;;
76035;SDS011;64732;56.314;44.068;2024-01-30T01:21:08;23.98;;;9.35;;
76035;SDS011;64732;56.314;44.068;2024-01-30T01:23:29;27.88;;;12.38;;
76035;SDS011;64732;56.314;44.068;2024-01-30T01:25:50;21.77;;;8.13;;
76035;SDS011;64732;56.314;44.068;2024-01-30T01:28:11;18.88;;;9.20;;
76035;SDS011;64732;56.314;44.068;2024-01-30T01:30:32;23.45;;;10.80;;
76035;SDS011;64732;56.314;44.068;2024-01-30T01:32:53;24.45;;;9.60;;
76035;SDS011;64732;56.314;44.068;2024-01-30T01:35:17;22.23;;;8.82;;
76035;SDS011;64732;56.314;44.068;2024-01-30T01:37:38;27.60;;;10.77;;
76035;SDS011;64732;56.314;44.068;2024-01-30T01:39:59;21.98;;;8.13;;
76035;SDS011;64732;56.314;44.068;2024-01-30T01:42:24;22.50;;;9.45;;
76035;SDS011;64732;56.314;44.068;2024-01-30T01:44:45;22.25;;;9.45;;
76035;SDS011;64732;56.314;44.068;2024-01-30T01:47:06;21.50;;;9.98;;
76035;SDS011;64732;56.314;44.068;2024-01-30T01:49:27;23.67;;;10.48;;
76035;SDS011;64732;56.314;44.068;2024-01-30T01:51:52;18.55;;;8.35;;
76035;SDS011;64732;56.314;44.068;2024-01-30T01:54:14;30.52;;;10.63;;
76035;SDS011;64732;56.314;44.068;2024-01-30T01:56:36;18.55;;;8.48;;
76035;SDS011;64732;56.314;44.068;2024-01-30T01:58:59;22.25;;;8.55;;
76035;SDS011;64732;56.314;44.068;2024-01-30T02:01:21;22.30;;;8.52;;
76035;SDS011;64732;56.314;44.068;2024-01-30T02:03:44;19.73;;;8.63;;
76035;SDS011;64732;56.314;44.068;2024-01-30T02:06:05;22.35;;;8.60;;
76035;SDS011;64732;56.314;44.068;2024-01-30T02:08:29;24.48;;;10.88;;
76035;SDS011;64732;56.314;44.068;2024-01-30T02:10:50;23.20;;;11.38;;
76035;SDS011;64732;56.314;44.068;2024-01-30T02:13:11;20.67;;;8.43;;
76035;SDS011;64732;56.314;44.068;2024-01-30T02:15:32;23.17;;;8.48;;
76035;SDS011;64732;56.314;44.068;2024-01-30T02:17:53;21.35;;;10.27;;
76035;SDS011;64732;56.314;44.068;2024-01-30T02:20:34;24.13;;;9.70;;
76035;SDS011;64732;56.314;44.068;2024-01-30T02:22:58;23.40;;;10.00;;
76035;SDS011;64732;56.314;44.068;2024-01-30T02:25:19;22.42;;;9.55;;
76035;SDS011;64732;56.314;44.068;2024-01-30T02:27:40;17.92;;;6.63;;
76035;SDS011;64732;56.314;44.068;2024-01-30T02:30:02;20.10;;;7.85;;
76035;SDS011;64732;56.314;44.068;2024-01-30T02:32:26;20.98;;;8.15;;
76035;SDS011;64732;56.314;44.068;2024-01-30T02:34:47;19.60;;;8.48;;
76035;SDS011;64732;56.314;44.068;2024-01-30T02:37:10;17.25;;;8.13;;
76035;SDS011;64732;56.314;44.068;2024-01-30T02:39:34;17.55;;;8.18;;
76035;SDS011;64732;56.314;44.068;2024-01-30T02:41:55;20.33;;;8.00;;
76035;SDS011;64732;56.314;44.068;2024-01-30T02:44:16;21.20;;;8.93;;
76035;SDS011;64732;56.314;44.068;2024-01-30T02:46:37;18.25;;;8.52;;
76035;SDS011;64732;56.314;44.068;2024-01-30T02:48:58;27.23;;;10.15;;
76035;SDS011;64732;56.314;44.068;2024-01-30T02:51:19;24.48;;;9.13;;
76035;SDS011;64732;56.314;44.068;2024-01-30T02:53:41;19.50;;;8.60;;
76035;SDS011;64732;56.314;44.068;2024-01-30T02:56:04;21.05;;;8.15;;
76035;SDS011;64732;56.314;44.068;2024-01-30T02:58:26;21.27;;;9.48;;
76035;SDS011;64732;56.314;44.068;2024-01-30T03:00:47;19.95;;;8.30;;
76035;SDS011;64732;56.314;44.068;2024-01-30T03:03:08;19.90;;;9.18;;
76035;SDS011;64732;56.314;44.068;2024-01-30T03:05:29;20.10;;;8.70;;
76035;SDS011;64732;56.314;44.068;2024-01-30T03:07:50;20.17;;;9.55;;
76035;SDS011;64732;56.314;44.068;2024-01-30T03:10:11;22.33;;;9.02;;
76035;SDS011;64732;56.314;44.068;2024-01-30T03:12:35;23.50;;;9.98;;
76035;SDS011;64732;56.314;44.068;2024-01-30T03:14:56;24.50;;;9.38;;
76035;SDS011;64732;56.314;44.068;2024-01-30T03:17:17;26.90;;;10.32;;
76035;SDS011;64732;56.314;44.068;2024-01-30T03:19:38;15.98;;;7.63;;
76035;SDS011;64732;56.314;44.068;2024-01-30T03:21:59;21.92;;;9.27;;
76035;SDS011;64732;56.314;44.068;2024-01-30T03:24:22;24.38;;;10.88;;
76035;SDS011;64732;56.314;44.068;2024-01-30T03:26:43;25.83;;;10.68;;
76035;SDS011;64732;56.314;44.068;2024-01-30T03:29:07;38.60;;;11.32;;
76035;SDS011;64732;56.314;44.068;2024-01-30T03:31:28;25.70;;;11.23;;
76035;SDS011;64732;56.314;44.068;2024-01-30T03:33:49;23.50;;;8.93;;
76035;SDS011;64732;56.314;44.068;2024-01-30T03:36:10;21.00;;;8.73;;
76035;SDS011;64732;56.314;44.068;2024-01-30T03:38:31;27.67;;;10.80;;
76035;SDS011;64732;56.314;44.068;2024-01-30T03:40:52;20.58;;;9.13;;
76035;SDS011;64732;56.314;44.068;2024-01-30T03:43:15;23.42;;;9.18;;
76035;SDS011;64732;56.314;44.068;2024-01-30T03:45:40;17.15;;;7.70;;
76035;SDS011;64732;56.314;44.068;2024-01-30T03:48:01;24.92;;;10.65;;
76035;SDS011;64732;56.314;44.068;2024-01-30T03:50:22;24.27;;;9.68;;
76035;SDS011;64732;56.314;44.068;2024-01-30T03:52:43;28.92;;;11.13;;
76035;SDS011;64732;56.314;44.068;2024-01-30T03:55:05;13.85;;;7.32;;
76035;SDS011;64732;56.314;44.068;2024-01-30T03:57:26;19.38;;;8.05;;
76035;SDS011;64732;56.314;44.068;2024-01-30T03:59:47;24.95;;;9.02;;
76035;SDS011;64732;56.314;44.068;2024-01-30T04:02:12;20.92;;;9.50;;
76035;SDS011;64732;56.314;44.068;2024-01-30T04:04:33;20.27;;;9.02;;
76035;SDS011;64732;56.314;44.068;2024-01-30T04:06:54;20.02;;;9.95;;
76035;SDS011;64732;56.314;44.068;2024-01-30T04:09:18;17.33;;;7.63;;
76035;SDS011;64732;56.314;44.068;2024-01-30T04:11:39;17.25;;;7.68;;
76035;SDS011;64732;56.314;44.068;2024-01-30T04:14:00;22.40;;;8.80;;
76035;SDS011;64732;56.314;44.068;2024-01-30T04:16:22;21.92;;;9.02;;
76035;SDS011;64732;56.314;44.068;2024-01-30T04:18:46;20.70;;;8.00;;
76035;SDS011;64732;56.314;44.068;2024-01-30T04:21:07;26.17;;;10.07;;
76035;SDS011;64732;56.314;44.068;2024-01-30T04:23:28;19.25;;;8.43;;
76035;SDS011;64732;56.314;44.068;2024-01-30T04:25:49;17.92;;;7.35;;
76035;SDS011;64732;56.314;44.068;2024-01-30T04:28:10;18.33;;;7.55;;
76035;SDS011;64732;56.314;44.068;2024-01-30T04:30:31;17.92;;;8.35;;
76035;SDS011;64732;56.314;44.068;2024-01-30T04:32:52;18.33;;;7.28;;
76035;SDS011;64732;56.314;44.068;2024-01-30T04:35:16;20.33;;;9.70;;
76035;SDS011;64732;56.314;44.068;2024-01-30T04:37:37;24.15;;;9.52;;
76035;SDS011;64732;56.314;44.068;2024-01-30T04:39:58;20.55;;;8.88;;
76035;SDS011;64732;56.314;44.068;2024-01-30T04:42:19;20.98;;;7.05;;
76035;SDS011;64732;56.314;44.068;2024-01-30T04:44:41;21.83;;;8.23;;
76035;SDS011;64732;56.314;44.068;2024-01-30T04:47:02;16.65;;;6.97;;
76035;SDS011;64732;56.314;44.068;2024-01-30T04:49:23;19.40;;;8.38;;
76035;SDS011;64732;56.314;44.068;2024-01-30T04:51:49;20.50;;;8.25;;
76035;SDS011;64732;56.314;44.068;2024-01-30T04:54:10;16.55;;;7.68;;
76035;SDS011;64732;56.314;44.068;2024-01-30T04:56:31;15.35;;;6.07;;
76035;SDS011;64732;56.314;44.068;2024-01-30T04:58:53;19.17;;;7.55;;
76035;SDS011;64732;56.314;44.068;2024-01-30T05:01:14;18.30;;;7.28;;
76035;SDS011;64732;56.314;44.068;2024-01-30T05:03:37;19.67;;;7.55;;
76035;SDS011;64732;56.314;44.068;2024-01-30T05:05:58;19.00;;;6.80;;
76035;SDS011;64732;56.314;44.068;2024-01-30T05:08:22;22.20;;;8.95;;
76035;SDS011;64732;56.314;44.068;2024-01-30T05:10:43;17.63;;;6.40;;
76035;SDS011;64732;56.314;44.068;2024-01-30T05:13:04;15.32;;;7.30;;
76035;SDS011;64732;56.314;44.068;2024-01-30T05:15:25;14.63;;;6.95;;
76035;SDS011;64732;56.314;44.068;2024-01-30T05:17:46;16.17;;;6.47;;
76035;SDS011;64732;56.314;44.068;2024-01-30T05:20:08;18.30;;;7.50;;
76035;SDS011;64732;56.314;44.068;2024-01-30T05:22:30;21.38;;;9.02;;
76035;SDS011;64732;56.314;44.068;2024-01-30T05:24:54;21.75;;;8.40;;
76035;SDS011;64732;56.314;44.068;2024-01-30T05:27:18;16.65;;;6.60;;
76035;SDS011;64732;56.314;44.068;2024-01-30T05:29:39;21.88;;;7.47;;
76035;SDS011;64732;56.314;44.068;2024-01-30T05:32:00;19.95;;;9.38;;
76035;SDS011;64732;56.314;44.068;2024-01-30T05:34:22;13.13;;;6.05;;
76035;SDS011;64732;56.314;44.068;2024-01-30T05:36:43;14.10;;;7.18;;
76035;SDS011;64732;56.314;44.068;2024-01-30T05:39:04;16.33;;;6.85;;
76035;SDS011;64732;56.314;44.068;2024-01-30T05:41:27;23.15;;;9.02;;
76035;SDS011;64732;56.314;44.068;2024-01-30T05:43:50;19.17;;;7.82;;
76035;SDS011;64732;56.314;44.068;2024-01-30T05:46:14;12.27;;;5.85;;
76035;SDS011;64732;56.314;44.068;2024-01-30T05:48:35;16.77;;;7.07;;
76035;SDS011;64732;56.314;44.068;2024-01-30T05:50:56;19.08;;;6.90;;
76035;SDS011;64732;56.314;44.068;2024-01-30T05:53:17;16.60;;;7.15;;
76035;SDS011;64732;56.314;44.068;2024-01-30T05:55:38;13.30;;;6.18;;
76035;SDS011;64732;56.314;44.068;2024-01-30T05:58:02;12.32;;;5.97;;
76035;SDS011;64732;56.314;44.068;2024-01-30T06:00:24;16.63;;;6.28;;
76035;SDS011;64732;56.314;44.068;2024-01-30T06:02:45;11.85;;;5.13;;
76035;SDS011;64732;56.314;44.068;2024-01-30T06:05:06;14.90;;;5.72;;
76035;SDS011;64732;56.314;44.068;2024-01-30T06:07:28;15.10;;;6.65;;
76035;SDS011;64732;56.314;44.068;2024-01-30T06:09:49;10.13;;;4.78;;
76035;SDS011;64732;56.314;44.068;2024-01-30T06:12:10;18.30;;;8.30;;
76035;SDS011;64732;56.314;44.068;2024-01-30T06:14:34;14.85;;;5.93;;
76035;SDS011;64732;56.314;44.068;2024-01-30T06:16:55;15.70;;;6.28;;
76035;SDS011;64732;56.314;44.068;2024-01-30T06:19:16;17.00;;;6.28;;
76035;SDS011;64732;56.314;44.068;2024-01-30T06:21:37;14.13;;;6.93;;
76035;SDS011;64732;56.314;44.068;2024-01-30T06:23:58;9.73;;;4.82;;
76035;SDS011;64732;56.314;44.068;2024-01-30T06:26:19;15.48;;;6.60;;
76035;SDS011;64732;56.314;44.068;2024-01-30T06:28:40;18.15;;;6.13;;
76035;SDS011;64732;56.314;44.068;2024-01-30T06:31:06;10.25;;;4.97;;
76035;SDS011;64732;56.314;44.068;2024-01-30T06:33:27;11.98;;;5.20;;
76035;SDS011;64732;56.314;44.068;2024-01-30T06:35:49;19.17;;;7.50;;
76035;SDS011;64732;56.314;44.068;2024-01-30T06:38:10;15.95;;;6.57;;
76035;SDS011;64732;56.314;44.068;2024-01-30T06:40:31;15.15;;;6.85;;
76035;SDS011;64732;56.314;44.068;2024-01-30T06:42:52;14.52;;;4.75;;
76035;SDS011;64732;56.314;44.068;2024-01-30T06:45:13;13.77;;;5.93;;
76035;SDS011;64732;56.314;44.068;2024-01-30T06:47:37;17.60;;;7.22;;
76035;SDS011;64732;56.314;44.068;2024-01-30T06:49:59;15.48;;;7.38;;
76035;SDS011;64732;56.314;44.068;2024-01-30T06:52:20;18.42;;;5.95;;
76035;SDS011;64732;56.314;44.068;2024-01-30T06:54:41;12.30;;;5.07;;
76035;SDS011;64732;56.314;44.068;2024-01-30T06:57:02;22.15;;;7.28;;
76035;SDS011;64732;56.314;44.068;2024-01-30T06:59:24;14.30;;;5.75;;
76035;SDS011;64732;56.314;44.068;2024-01-30T07:01:45;15.50;;;5.72;;
76035;SDS011;64732;56.314;44.068;2024-01-30T07:04:08;15.98;;;5.90;;
76035;SDS011;64732;56.314;44.068;2024-01-30T07:06:29;14.88;;;7.72;;
76035;SDS011;64732;56.314;44.068;2024-01-30T07:08:50;8.63;;;3.33;;
76035;SDS011;64732;56.314;44.068;2024-01-30T07:11:17;13.65;;;5.78;;
76035;SDS011;64732;56.314;44.068;2024-01-30T07:13:39;16.58;;;7.05;;
76035;SDS011;64732;56.314;44.068;2024-01-30T07:16:00;14.57;;;5.88;;
76035;SDS011;64732;56.314;44.068;2024-01-30T07:18:21;14.45;;;5.93;;
76035;SDS011;64732;56.314;44.068;2024-01-30T07:20:45;12.30;;;3.67;;
76035;SDS011;64732;56.314;44.068;2024-01-30T07:23:06;11.98;;;5.88;;
76035;SDS011;64732;56.314;44.068;2024-01-30T07:25:27;18.33;;;7.95;;
76035;SDS011;64732;56.314;44.068;2024-01-30T07:27:48;15.15;;;6.30;;
76035;SDS011;64732;56.314;44.068;2024-01-30T07:30:09;14.98;;;5.95;;
76035;SDS011;64732;56.314;44.068;2024-01-30T07:32:33;13.90;;;6.03;;
76035;SDS011;64732;56.314;44.068;2024-01-30T07:34:55;13.63;;;5.72;;
76035;SDS011;64732;56.314;44.068;2024-01-30T07:37:21;13.93;;;5.82;;
76035;SDS011;64732;56.314;44.068;2024-01-30T07:39:42;14.77;;;6.18;;
76035;SDS011;64732;56.314;44.068;2024-01-30T07:42:03;15.02;;;7.60;;
76035;SDS011;64732;56.314;44.068;2024-01-30T07:44:25;17.45;;;6.00;;
76035;SDS011;64732;56.314;44.068;2024-01-30T07:46:46;17.45;;;7.25;;
76035;SDS011;64732;56.314;44.068;2024-01-30T07:49:07;17.27;;;6.30;;
76035;SDS011;64732;56.314;44.068;2024-01-30T07:51:28;13.82;;;6.35;;
76035;SDS011;64732;56.314;44.068;2024-01-30T07:53:52;14.82;;;5.70;;
76035;SDS011;64732;56.314;44.068;2024-01-30T07:56:13;12.93;;;5.63;;
76035;SDS011;64732;56.314;44.068;2024-01-30T07:58:37;19.40;;;7.88;;
76035;SDS011;64732;56.314;44.068;2024-01-30T08:00:58;14.93;;;6.97;;
76035;SDS011;64732;56.314;44.068;2024-01-30T08:03:19;11.10;;;4.05;;
76035;SDS011;64732;56.314;44.068;2024-01-30T08:05:40;11.52;;;4.82;;
76035;SDS011;64732;56.314;44.068;2024-01-30T08:08:01;16.17;;;5.80;;
76035;SDS011;64732;56.314;44.068;2024-01-30T08:10:25;16.65;;;6.63;;
76035;SDS011;64732;56.314;44.068;2024-01-30T08:12:48;13.25;;;5.72;;
76035;SDS011;64732;56.314;44.068;2024-01-30T08:15:12;15.77;;;6.40;;
76035;SDS011;64732;56.314;44.068;2024-01-30T08:17:33;14.80;;;4.55;;
76035;SDS011;64732;56.314;44.068;2024-01-30T08:19:56;17.55;;;5.32;;
76035;SDS011;64732;56.314;44.068;2024-01-30T08:22:17;13.38;;;5.78;;
76035;SDS011;64732;56.314;44.068;2024-01-30T08:24:41;16.83;;;5.72;;
76035;SDS011;64732;56.314;44.068;2024-01-30T08:27:07;14.38;;;6.80;;
76035;SDS011;64732;56.314;44.068;2024-01-30T08:29:28;14.65;;;6.25;;
76035;SDS011;64732;56.314;44.068;2024-01-30T08:31:49;6.90;;;2.53;;
76035;SDS011;64732;56.314;44.068;2024-01-30T08:34:13;16.40;;;5.47;;
76035;SDS011;64732;56.314;44.068;2024-01-30T08:36:37;12.48;;;4.43;;
76035;SDS011;64732;56.314;44.068;2024-01-30T08:38:58;13.88;;;4.40;;
76035;SDS011;64732;56.314;44.068;2024-01-30T08:41:20;11.25;;;3.78;;
76035;SDS011;64732;56.314;44.068;2024-01-30T08:43:43;13.07;;;5.38;;
76035;SDS011;64732;56.314;44.068;2024-01-30T08:46:04;14.13;;;5.13;;
76035;SDS011;64732;56.314;44.068;2024-01-30T08:48:25;13.63;;;4.03;;
76035;SDS011;64732;56.314;44.068;2024-01-30T08:50:46;13.90;;;5.90;;
76035;SDS011;64732;56.314;44.068;2024-01-30T08:53:08;19.38;;;6.55;;
76035;SDS011;64732;56.314;44.068;2024-01-30T08:55:29;13.20;;;5.75;;
76035;SDS011;64732;56.314;44.068;2024-01-30T08:57:52;14.00;;;6.20;;
76035;SDS011;64732;56.314;44.068;2024-01-30T09:00:17;11.00;;;4.13;;
76035;SDS011;64732;56.314;44.068;2024-01-30T09:02:38;11.23;;;4.22;;
76035;SDS011;64732;56.314;44.068;2024-01-30T09:05:07;11.05;;;4.80;;
76035;SDS011;64732;56.314;44.068;2024-01-30T09:07:28;13.88;;;5.85;;
76035;SDS011;64732;56.314;44.068;2024-01-30T09:09:49;7.30;;;4.00;;
76035;SDS011;64732;56.314;44.068;2024-01-30T09:12:13;16.45;;;6.60;;
76035;SDS011;64732;56.314;44.068;2024-01-30T09:14:37;16.73;;;5.05;;
76035;SDS011;64732;56.314;44.068;2024-01-30T09:17:00;18.02;;;5.18;;
76035;SDS011;64732;56.314;44.068;2024-01-30T09:19:21;11.48;;;4.43;;
76035;SDS011;64732;56.314;44.068;2024-01-30T09:21:42;15.50;;;6.15;;
76035;SDS011;64732;56.314;44.068;2024-01-30T09:24:04;11.80;;;4.72;;
76035;SDS011;64732;56.314;44.068;2024-01-30T09:26:26;13.88;;;4.70;;
76035;SDS011;64732;56.314;44.068;2024-01-30T09:28:47;8.70;;;4.05;;
76035;SDS011;64732;56.314;44.068;2024-01-30T09:31:09;13.50;;;5.45;;
76035;SDS011;64732;56.314;44.068;2024-01-30T09:33:33;13.73;;;5.97;;
76035;SDS011;64732;56.314;44.068;2024-01-30T09:35:54;9.93;;;3.45;;
76035;SDS011;64732;56.314;44.068;2024-01-30T09:38:15;15.15;;;6.18;;
76035;SDS011;64732;56.314;44.068;2024-01-30T09:40:38;14.20;;;4.82;;
76035;SDS011;64732;56.314;44.068;2024-01-30T09:42:59;15.90;;;5.50;;
76035;SDS011;64732;56.314;44.068;2024-01-30T09:45:21;16.50;;;5.30;;
76035;SDS011;64732;56.314;44.068;2024-01-30T09:47:45;13.93;;;5.45;;
76035;SDS011;64732;56.314;44.068;2024-01-30T09:50:12;15.68;;;5.18;;
76035;SDS011;64732;56.314;44.068;2024-01-30T09:52:34;14.95;;;5.47;;
76035;SDS011;64732;56.314;44.068;2024-01-30T09:54:55;15.90;;;4.80;;
76035;SDS011;64732;56.314;44.068;2024-01-30T09:57:17;15.70;;;5.50;;
76035;SDS011;64732;56.314;44.068;2024-01-30T09:59:38;10.57;;;4.03;;
76035;SDS011;64732;56.314;44.068;2024-01-30T10:02:00;9.05;;;2.50;;
76035;SDS011;64732;56.314;44.068;2024-01-30T10:04:21;9.32;;;4.35;;
76035;SDS011;64732;56.314;44.068;2024-01-30T10:06:46;7.53;;;3.17;;
76035;SDS011;64732;56.314;44.068;2024-01-30T10:09:08;10.50;;;3.38;;
76035;SDS011;64732;56.314;44.068;2024-01-30T10:11:29;10.40;;;3.13;;
76035;SDS011;64732;56.314;44.068;2024-01-30T10:13:53;10.05;;;4.07;;
76035;SDS011;64732;56.314;44.068;2024-01-30T10:16:18;10.43;;;4.40;;
76035;SDS011;64732;56.314;44.068;2024-01-30T10:18:41;10.15;;;3.83;;
76035;SDS011;64732;56.314;44.068;2024-01-30T10:21:05;9.13;;;3.28;;
76035;SDS011;64732;56.314;44.068;2024-01-30T10:23:31;8.98;;;3.97;;
76035;SDS011;64732;56.314;44.068;2024-01-30T10:25:52;8.77;;;3.67;;
76035;SDS011;64732;56.314;44.068;2024-01-30T10:28:16;10.30;;;3.58;;
76035;SDS011;64732;56.314;44.068;2024-01-30T10:30:37;10.80;;;3.92;;
76035;SDS011;64732;56.314;44.068;2024-01-30T10:32:58;7.13;;;3.15;;
76035;SDS011;64732;56.314;44.068;2024-01-30T10:35:19;8.45;;;3.70;;
76035;SDS011;64732;56.314;44.068;2024-01-30T10:37:41;4.45;;;2.60;;
76035;SDS011;64732;56.314;44.068;2024-01-30T10:40:14;11.75;;;4.45;;
76035;SDS011;64732;56.314;44.068;2024-01-30T10:42:43;10.77;;;4.60;;
76035;SDS011;64732;56.314;44.068;2024-01-30T10:45:06;10.27;;;3.85;;
76035;SDS011;64732;56.314;44.068;2024-01-30T10:47:28;10.80;;;4.13;;
76035;SDS011;64732;56.314;44.068;2024-01-30T10:49:49;6.95;;;2.75;;
76035;SDS011;64732;56.314;44.068;2024-01-30T10:52:12;8.27;;;2.90;;
76035;SDS011;64732;56.314;44.068;2024-01-30T10:54:34;10.68;;;3.53;;
76035;SDS011;64732;56.314;44.068;2024-01-30T10:56:58;9.48;;;2.92;;
76035;SDS011;64732;56.314;44.068;2024-01-30T10:59:21;9.40;;;3.65;;
76035;SDS011;64732;56.314;44.068;2024-01-30T11:01:44;9.73;;;4.03;;
76035;SDS011;64732;56.314;44.068;2024-01-30T11:04:06;9.38;;;3.78;;
76035;SDS011;64732;56.314;44.068;2024-01-30T11:06:27;7.07;;;3.60;;
76035;SDS011;64732;56.314;44.068;2024-01-30T11:08:59;10.00;;;3.97;;
76035;SDS011;64732;56.314;44.068;2024-01-30T11:11:21;10.30;;;3.88;;
76035;SDS011;64732;56.314;44.068;2024-01-30T11:13:45;8.10;;;2.33;;
76035;SDS011;64732;56.314;44.068;2024-01-30T11:16:06;7.05;;;2.70;;
76035;SDS011;64732;56.314;44.068;2024-01-30T11:18:28;8.52;;;2.90;;
76035;SDS011;64732;56.314;44.068;2024-01-30T11:20:51;7.60;;;3.47;;
76035;SDS011;64732;56.314;44.068;2024-01-30T11:23:12;8.20;;;2.47;;
76035;SDS011;64732;56.314;44.068;2024-01-30T11:25:33;9.32;;;3.40;;
76035;SDS011;64732;56.314;44.068;2024-01-30T11:27:55;13.57;;;3.53;;
76035;SDS011;64732;56.314;44.068;2024-01-30T11:30:26;7.28;;;3.20;;
76035;SDS011;64732;56.314;44.068;2024-01-30T11:32:57;7.80;;;2.65;;
76035;SDS011;64732;56.314;44.068;2024-01-30T11:35:19;15.27;;;3.17;;
76035;SDS011;64732;56.314;44.068;2024-01-30T11:37:41;9.05;;;2.90;;
76035;SDS011;64732;56.314;44.068;2024-01-30T11:40:02;7.40;;;2.83;;
76035;SDS011;64732;56.314;44.068;2024-01-30T11:42:25;13.25;;;3.72;;
76035;SDS011;64732;56.314;44.068;2024-01-30T11:44:47;7.80;;;2.95;;
76035;SDS011;64732;56.314;44.068;2024-01-30T11:47:10;7.63;;;2.58;;
76035;SDS011;64732;56.314;44.068;2024-01-30T11:49:32;6.50;;;2.60;;
76035;SDS011;64732;56.314;44.068;2024-01-30T11:51:53;7.60;;;2.35;;
76035;SDS011;64732;56.314;44.068;2024-01-30T11:54:14;7.90;;;2.78;;
76035;SDS011;64732;56.314;44.068;2024-01-30T11:56:36;12.45;;;3.55;;
76035;SDS011;64732;56.314;44.068;2024-01-30T11:58:58;8.07;;;3.45;;
76035;SDS011;64732;56.314;44.068;2024-01-30T12:01:19;6.72;;;2.47;;
76035;SDS011;64732;56.314;44.068;2024-01-30T12:03:42;11.05;;;3.60;;
76035;SDS011;64732;56.314;44.068;2024-01-30T12:06:04;9.07;;;2.78;;
76035;SDS011;64732;56.314;44.068;2024-01-30T12:08:25;4.93;;;2.17;;
76035;SDS011;64732;56.314;44.068;2024-01-30T12:10:46;8.77;;;2.90;;
76035;SDS011;64732;56.314;44.068;2024-01-30T12:13:16;10.00;;;3.78;;
76035;SDS011;64732;56.314;44.068;2024-01-30T12:15:37;8.35;;;2.60;;
76035;SDS011;64732;56.314;44.068;2024-01-30T12:18:04;8.65;;;3.22;;
76035;SDS011;64732;56.314;44.068;2024-01-30T12:20:29;9.88;;;2.97;;
76035;SDS011;64732;56.314;44.068;2024-01-30T12:22:50;6.50;;;3.33;;
76035;SDS011;64732;56.314;44.068;2024-01-30T12:25:11;8.18;;;4.50;;
76035;SDS011;64732;56.314;44.068;2024-01-30T12:27:33;11.07;;;3.90;;
76035;SDS011;64732;56.314;44.068;2024-01-30T12:29:57;10.32;;;3.22;;
76035;SDS011;64732;56.314;44.068;2024-01-30T12:32:18;7.30;;;3.30;;
76035;SDS011;64732;56.314;44.068;2024-01-30T12:34:40;22.75;;;4.70;;
76035;SDS011;64732;56.314;44.068;2024-01-30T12:37:04;9.63;;;3.22;;
76035;SDS011;64732;56.314;44.068;2024-01-30T12:39:28;14.60;;;3.95;;
76035;SDS011;64732;56.314;44.068;2024-01-30T12:41:51;9.38;;;4.45;;
76035;SDS011;64732;56.314;44.068;2024-01-30T12:44:13;7.57;;;3.20;;
76035;SDS011;64732;56.314;44.068;2024-01-30T12:46:37;9.02;;;4.03;;
76035;SDS011;64732;56.314;44.068;2024-01-30T12:48:59;15.32;;;4.47;;
76035;SDS011;64732;56.314;44.068;2024-01-30T12:51:21;9.98;;;3.53;;
76035;SDS011;64732;56.314;44.068;2024-01-30T12:53:44;13.88;;;5.55;;
76035;SDS011;64732;56.314;44.068;2024-01-30T12:56:06;5.38;;;2.15;;
76035;SDS011;64732;56.314;44.068;2024-01-30T12:58:27;9.68;;;3.67;;
76035;SDS011;64732;56.314;44.068;2024-01-30T13:00:48;9.77;;;4.07;;
76035;SDS011;64732;56.314;44.068;2024-01-30T13:03:09;11.98;;;4.97;;
76035;SDS011;64732;56.314;44.068;2024-01-30T13:05:33;17.05;;;3.95;;
76035;SDS011;64732;56.314;44.068;2024-01-30T13:07:57;10.65;;;4.95;;
76035;SDS011;64732;56.314;44.068;2024-01-30T13:10:20;8.10;;;4.15;;
76035;SDS011;64732;56.314;44.068;2024-01-30T13:12:42;9.80;;;4.38;;
76035;SDS011;64732;56.314;44.068;2024-01-30T13:15:06;9.95;;;4.75;;
76035;SDS011;64732;56.314;44.068;2024-01-30T13:17:28;12.95;;;5.13;;
76035;SDS011;64732;56.314;44.068;2024-01-30T13:19:49;15.27;;;5.50;;
76035;SDS011;64732;56.314;44.068;2024-01-30T13:22:11;10.90;;;4.90;;
76035;SDS011;64732;56.314;44.068;2024-01-30T13:24:37;11.30;;;4.68;;
76035;SDS011;64732;56.314;44.068;2024-01-30T13:27:00;14.07;;;6.68;;
76035;SDS011;64732;56.314;44.068;2024-01-30T13:29:22;14.43;;;5.53;;
76035;SDS011;64732;56.314;44.068;2024-01-30T13:31:43;18.13;;;6.57;;
76035;SDS011;64732;56.314;44.068;2024-01-30T13:34:04;13.88;;;5.90;;
76035;SDS011;64732;56.314;44.068;2024-01-30T13:36:25;14.23;;;6.10;;
76035;SDS011;64732;56.314;44.068;2024-01-30T13:38:46;17.15;;;6.50;;
76035;SDS011;64732;56.314;44.068;2024-01-30T13:41:11;11.05;;;4.20;;
76035;SDS011;64732;56.314;44.068;2024-01-30T13:43:34;10.13;;;3.30;;
76035;SDS011;64732;56.314;44.068;2024-01-30T13:45:56;17.67;;;5.47;;
76035;SDS011;64732;56.314;44.068;2024-01-30T13:48:17;27.95;;;6.90;;
76035;SDS011;64732;56.314;44.068;2024-01-30T13:50:38;18.20;;;5.55;;